sensor_id;sensor_type;location;lat;lon;timestamp;pressure;altitude;pressure_sealevel;temperature;humidity
16834;BME280;8533;48.426;10.868;2024-03-23T00:55:03;95466.19;;;9.51;93.75
16834;BME280;8533;48.426;10.868;2024-03-23T00:57:28;95496.53;;;9.68;94.59
16834;BME280;8533;48.426;10.868;2024-03-23T00:59:53;95528.50;;;9.90;94.38
16834;BME280;8533;48.426;10.868;2024-03-23T01:02:19;95513.28;;;9.77;95.54
16834;BME280;8533;48.426;10.868;2024-03-23T01:04:44;95515.91;;;9.72;95.56
16834;BME280;8533;48.426;10.868;2024-03-23T01:07:09;95516.69;;;9.72;98.04
16834;BME280;8533;48.426;10.868;2024-03-23T01:09:34;95486.50;;;9.44;98.29
16834;BME280;8533;48.426;10.868;2024-03-23T01:12:00;95496.78;;;9.61;96.08
16834;BME280;8533;48.426;10.868;2024-03-23T01:14:26;95491.31;;;9.68;96.39
16834;BME280;8533;48.426;10.868;2024-03-23T01:16:52;95509.41;;;9.84;95.34
16834;BME280;8533;48.426;10.868;2024-03-23T01:19:17;95462.03;;;9.61;94.00
16834;BME280;8533;48.426;10.868;2024-03-23T01:21:42;95474.63;;;9.74;93.50
16834;BME280;8533;48.426;10.868;2024-03-23T01:24:08;95488.00;;;9.87;92.97
16834;BME280;8533;48.426;10.868;2024-03-23T01:26:35;95508.97;;;10.03;92.73
16834;BME280;8533;48.426;10.868;2024-03-23T01:29:02;95472.84;;;9.84;93.23
16834;BME280;8533;48.426;10.868;2024-03-23T01:31:27;95489.59;;;9.93;93.03
16834;BME280;8533;48.426;10.868;2024-03-23T01:33:52;95481.50;;;9.95;92.69
16834;BME280;8533;48.426;10.868;2024-03-23T01:36:18;95484.13;;;10.00;92.02
16834;BME280;8533;48.426;10.868;2024-03-23T01:38:43;95454.31;;;9.81;92.69
16834;BME280;8533;48.426;10.868;2024-03-23T01:41:08;95472.63;;;9.96;92.82
16834;BME280;8533;48.426;10.868;2024-03-23T01:43:34;95463.19;;;9.90;92.16
16834;BME280;8533;48.426;10.868;2024-03-23T01:45:59;95441.47;;;9.74;92.19
16834;BME280;8533;48.426;10.868;2024-03-23T01:48:25;95483.63;;;10.03;92.90
16834;BME280;8533;48.426;10.868;2024-03-23T01:50:50;95444.59;;;9.76;92.99
16834;BME280;8533;48.426;10.868;2024-03-23T01:53:15;95488.81;;;9.93;93.91
16834;BME280;8533;48.426;10.868;2024-03-23T01:55:47;95387.56;;;9.43;93.66
16834;BME280;8533;48.426;10.868;2024-03-23T01:58:12;95414.81;;;9.62;93.62
16834;BME280;8533;48.426;10.868;2024-03-23T02:00:37;95415.34;;;9.64;93.53
16834;BME280;8533;48.426;10.868;2024-03-23T02:03:21;95459.56;;;10.01;93.91
16834;BME280;8533;48.426;10.868;2024-03-23T02:05:47;95453.81;;;9.99;93.58
16834;BME280;8533;48.426;10.868;2024-03-23T02:08:12;95456.41;;;9.99;93.91
16834;BME280;8533;48.426;10.868;2024-03-23T02:10:37;95433.41;;;9.86;93.74
16834;BME280;8533;48.426;10.868;2024-03-23T02:13:03;95446.50;;;9.96;94.43
16834;BME280;8533;48.426;10.868;2024-03-23T02:15:28;95425.03;;;9.84;93.81
16834;BME280;8533;48.426;10.868;2024-03-23T02:17:53;95448.09;;;9.97;94.70
16834;BME280;8533;48.426;10.868;2024-03-23T02:20:19;95346.06;;;9.41;94.37
16834;BME280;8533;48.426;10.868;2024-03-23T02:22:44;95441.28;;;10.06;93.61
16834;BME280;8533;48.426;10.868;2024-03-23T02:25:09;95408.09;;;9.97;93.45
16834;BME280;8533;48.426;10.868;2024-03-23T02:27:35;95395.28;;;9.90;94.29
16834;BME280;8533;48.426;10.868;2024-03-23T02:30:01;95366.25;;;9.71;93.31
16834;BME280;8533;48.426;10.868;2024-03-23T02:32:26;95377.78;;;9.90;93.51
16834;BME280;8533;48.426;10.868;2024-03-23T02:34:51;95424.63;;;10.17;94.30
16834;BME280;8533;48.426;10.868;2024-03-23T02:37:17;95397.66;;;10.07;94.14
16834;BME280;8533;48.426;10.868;2024-03-23T02:39:42;95388.78;;;10.03;93.97
16834;BME280;8533;48.426;10.868;2024-03-23T02:42:07;95388.50;;;9.99;94.17
16834;BME280;8533;48.426;10.868;2024-03-23T02:44:33;95409.72;;;10.18;93.55
16834;BME280;8533;48.426;10.868;2024-03-23T02:46:58;95390.03;;;9.90;94.35
16834;BME280;8533;48.426;10.868;2024-03-23T02:49:23;95328.63;;;9.47;94.78
16834;BME280;8533;48.426;10.868;2024-03-23T02:51:48;95391.13;;;9.99;95.12
16834;BME280;8533;48.426;10.868;2024-03-23T02:54:14;95381.19;;;9.96;95.47
16834;BME280;8533;48.426;10.868;2024-03-23T02:56:39;95386.66;;;10.00;96.53
16834;BME280;8533;48.426;10.868;2024-03-23T02:59:04;95299.09;;;9.41;95.64
16834;BME280;8533;48.426;10.868;2024-03-23T03:01:30;95340.66;;;9.68;96.53
16834;BME280;8533;48.426;10.868;2024-03-23T03:03:55;95351.63;;;9.75;96.55
16834;BME280;8533;48.426;10.868;2024-03-23T03:06:24;95357.91;;;9.79;98.50
16834;BME280;8533;48.426;10.868;2024-03-23T03:08:50;95354.78;;;9.77;98.57
16834;BME280;8533;48.426;10.868;2024-03-23T03:11:15;95351.38;;;9.77;98.32
16834;BME280;8533;48.426;10.868;2024-03-23T03:13:40;95367.59;;;9.99;98.36
16834;BME280;8533;48.426;10.868;2024-03-23T03:16:11;95355.06;;;9.91;97.88
16834;BME280;8533;48.426;10.868;2024-03-23T03:18:37;95279.56;;;9.54;98.10
16834;BME280;8533;48.426;10.868;2024-03-23T03:21:03;95343.59;;;9.97;97.33
16834;BME280;8533;48.426;10.868;2024-03-23T03:23:30;95355.59;;;10.08;97.23
16834;BME280;8533;48.426;10.868;2024-03-23T03:25:55;95331.81;;;10.00;97.61
16834;BME280;8533;48.426;10.868;2024-03-23T03:28:21;95321.13;;;9.96;96.68
16834;BME280;8533;48.426;10.868;2024-03-23T03:30:46;95299.69;;;9.84;97.36
16834;BME280;8533;48.426;10.868;2024-03-23T03:33:11;95315.88;;;9.91;98.33
16834;BME280;8533;48.426;10.868;2024-03-23T03:35:36;95261.03;;;9.71;96.55
16834;BME280;8533;48.426;10.868;2024-03-23T03:38:04;95300.47;;;9.94;97.59
16834;BME280;8533;48.426;10.868;2024-03-23T03:40:29;95298.66;;;9.95;97.16
16834;BME280;8533;48.426;10.868;2024-03-23T03:42:55;95281.94;;;9.86;98.02
16834;BME280;8533;48.426;10.868;2024-03-23T03:45:20;95317.44;;;10.02;97.81
16834;BME280;8533;48.426;10.868;2024-03-23T03:47:46;95315.34;;;10.14;96.68
16834;BME280;8533;48.426;10.868;2024-03-23T03:50:11;95307.00;;;10.07;96.35
16834;BME280;8533;48.426;10.868;2024-03-23T03:52:36;95298.63;;;10.15;96.81
16834;BME280;8533;48.426;10.868;2024-03-23T03:55:02;95318.00;;;10.24;95.68
16834;BME280;8533;48.426;10.868;2024-03-23T03:57:28;95214.28;;;9.64;94.74
16834;BME280;8533;48.426;10.868;2024-03-23T03:59:53;95129.19;;;9.12;94.27
16834;BME280;8533;48.426;10.868;2024-03-23T04:02:19;95285.34;;;10.27;94.12
16834;BME280;8533;48.426;10.868;2024-03-23T04:04:44;95289.22;;;10.40;94.59
16834;BME280;8533;48.426;10.868;2024-03-23T04:07:09;95271.72;;;10.35;94.50
16834;BME280;8533;48.426;10.868;2024-03-23T04:09:35;95239.84;;;10.23;94.25
16834;BME280;8533;48.426;10.868;2024-03-23T04:12:00;95268.59;;;10.33;94.55
16834;BME280;8533;48.426;10.868;2024-03-23T04:14:26;95261.56;;;10.28;93.83
16834;BME280;8533;48.426;10.868;2024-03-23T04:16:51;95284.75;;;10.50;94.07
16834;BME280;8533;48.426;10.868;2024-03-23T04:19:16;95274.84;;;10.42;94.28
16834;BME280;8533;48.426;10.868;2024-03-23T04:21:42;95235.94;;;10.25;94.62
16834;BME280;8533;48.426;10.868;2024-03-23T04:24:07;95277.19;;;10.54;94.56
16834;BME280;8533;48.426;10.868;2024-03-23T04:26:50;95248.72;;;10.37;94.17
16834;BME280;8533;48.426;10.868;2024-03-23T04:29:16;95246.34;;;10.46;93.60
16834;BME280;8533;48.426;10.868;2024-03-23T04:31:41;95233.50;;;10.49;93.75
16834;BME280;8533;48.426;10.868;2024-03-23T04:34:06;95254.16;;;10.61;93.79
16834;BME280;8533;48.426;10.868;2024-03-23T04:36:32;95267.50;;;10.59;93.53
16834;BME280;8533;48.426;10.868;2024-03-23T04:38:59;95110.63;;;9.70;93.01
16834;BME280;8533;48.426;10.868;2024-03-23T04:41:24;95243.41;;;10.62;93.82
16834;BME280;8533;48.426;10.868;2024-03-23T04:43:51;95252.56;;;10.65;93.32
16834;BME280;8533;48.426;10.868;2024-03-23T04:46:16;95251.50;;;10.66;93.29
16834;BME280;8533;48.426;10.868;2024-03-23T04:48:41;95206.63;;;10.39;92.95
16834;BME280;8533;48.426;10.868;2024-03-23T04:51:09;95196.72;;;10.25;92.86
16834;BME280;8533;48.426;10.868;2024-03-23T04:53:34;95133.28;;;9.89;93.71
16834;BME280;8533;48.426;10.868;2024-03-23T04:56:00;95213.97;;;10.37;93.58
16834;BME280;8533;48.426;10.868;2024-03-23T04:58:25;95233.19;;;10.71;94.92
16834;BME280;8533;48.426;10.868;2024-03-23T05:00:57;95065.50;;;9.49;100.00
16834;BME280;8533;48.426;10.868;2024-03-23T05:03:22;95256.47;;;10.62;100.00
16834;BME280;8533;48.426;10.868;2024-03-23T05:05:49;95234.03;;;10.51;100.00
16834;BME280;8533;48.426;10.868;2024-03-23T05:08:15;95182.13;;;10.19;100.00
16834;BME280;8533;48.426;10.868;2024-03-23T05:10:41;95236.88;;;10.55;100.00
16834;BME280;8533;48.426;10.868;2024-03-23T05:13:07;95204.28;;;10.37;100.00
16834;BME280;8533;48.426;10.868;2024-03-23T05:15:32;95202.97;;;10.35;100.00
16834;BME280;8533;48.426;10.868;2024-03-23T05:17:57;95219.66;;;10.54;100.00
16834;BME280;8533;48.426;10.868;2024-03-23T05:20:23;95212.56;;;10.54;100.00
16834;BME280;8533;48.426;10.868;2024-03-23T05:22:49;95193.53;;;10.44;100.00
16834;BME280;8533;48.426;10.868;2024-03-23T05:25:14;95189.09;;;10.44;100.00
16834;BME280;8533;48.426;10.868;2024-03-23T05:27:41;95158.28;;;10.31;100.00
16834;BME280;8533;48.426;10.868;2024-03-23T05:30:07;95184.88;;;10.53;100.00
16834;BME280;8533;48.426;10.868;2024-03-23T05:32:32;95177.84;;;10.49;100.00
16834;BME280;8533;48.426;10.868;2024-03-23T05:34:57;95092.28;;;9.90;100.00
16834;BME280;8533;48.426;10.868;2024-03-23T05:37:23;95130.13;;;10.13;100.00
16834;BME280;8533;48.426;10.868;2024-03-23T05:39:49;95164.78;;;10.39;100.00
16834;BME280;8533;48.426;10.868;2024-03-23T05:42:19;95147.84;;;10.31;100.00
16834;BME280;8533;48.426;10.868;2024-03-23T05:44:45;94959.91;;;9.06;100.00
16834;BME280;8533;48.426;10.868;2024-03-23T05:47:11;95155.63;;;10.41;100.00
16834;BME280;8533;48.426;10.868;2024-03-23T05:49:38;95164.00;;;10.43;100.00
16834;BME280;8533;48.426;10.868;2024-03-23T05:52:03;95148.84;;;10.40;99.83
16834;BME280;8533;48.426;10.868;2024-03-23T05:54:29;95093.78;;;10.21;98.96
16834;BME280;8533;48.426;10.868;2024-03-23T05:56:55;95132.84;;;10.52;98.38
16834;BME280;8533;48.426;10.868;2024-03-23T05:59:20;94942.59;;;9.35;98.09
16834;BME280;8533;48.426;10.868;2024-03-23T06:01:47;95136.19;;;10.67;97.96
16834;BME280;8533;48.426;10.868;2024-03-23T06:04:12;95067.06;;;10.35;96.82
16834;BME280;8533;48.426;10.868;2024-03-23T06:06:39;95095.13;;;10.63;96.66
16834;BME280;8533;48.426;10.868;2024-03-23T06:09:04;95126.41;;;10.83;95.95
16834;BME280;8533;48.426;10.868;2024-03-23T06:11:30;95121.66;;;10.90;96.66
16834;BME280;8533;48.426;10.868;2024-03-23T06:13:55;95119.50;;;11.02;95.36
16834;BME280;8533;48.426;10.868;2024-03-23T06:16:21;95090.72;;;11.02;94.12
16834;BME280;8533;48.426;10.868;2024-03-23T06:18:50;95111.41;;;11.33;93.41
16834;BME280;8533;48.426;10.868;2024-03-23T06:21:15;95111.81;;;11.45;93.33
16834;BME280;8533;48.426;10.868;2024-03-23T06:23:41;95112.91;;;11.68;91.45
16834;BME280;8533;48.426;10.868;2024-03-23T06:26:06;95095.59;;;11.72;91.41
16834;BME280;8533;48.426;10.868;2024-03-23T06:28:32;95075.75;;;11.66;90.39
16834;BME280;8533;48.426;10.868;2024-03-23T06:30:57;95100.53;;;11.78;89.76
16834;BME280;8533;48.426;10.868;2024-03-23T06:33:22;95056.00;;;11.50;89.75
16834;BME280;8533;48.426;10.868;2024-03-23T06:35:51;95093.72;;;11.77;90.64
16834;BME280;8533;48.426;10.868;2024-03-23T06:38:17;95091.69;;;11.69;91.38
16834;BME280;8533;48.426;10.868;2024-03-23T06:40:43;95083.94;;;11.59;90.91
16834;BME280;8533;48.426;10.868;2024-03-23T06:43:15;95095.16;;;11.65;90.96
16834;BME280;8533;48.426;10.868;2024-03-23T06:45:40;95069.19;;;11.39;90.98
16834;BME280;8533;48.426;10.868;2024-03-23T06:48:06;95116.38;;;11.63;91.79
16834;BME280;8533;48.426;10.868;2024-03-23T06:50:33;95058.06;;;11.24;94.48
16834;BME280;8533;48.426;10.868;2024-03-23T06:52:58;94881.22;;;9.97;99.25
16834;BME280;8533;48.426;10.868;2024-03-23T06:55:24;95096.03;;;11.26;100.00
16834;BME280;8533;48.426;10.868;2024-03-23T06:57:51;95073.34;;;11.12;100.00
16834;BME280;8533;48.426;10.868;2024-03-23T07:00:17;94847.00;;;9.54;100.00
16834;BME280;8533;48.426;10.868;2024-03-23T07:02:42;95111.41;;;11.33;100.00
16834;BME280;8533;48.426;10.868;2024-03-23T07:05:09;95062.69;;;11.03;100.00
16834;BME280;8533;48.426;10.868;2024-03-23T07:07:34;95113.44;;;11.41;100.00
16834;BME280;8533;48.426;10.868;2024-03-23T07:10:00;95120.19;;;11.47;100.00
16834;BME280;8533;48.426;10.868;2024-03-23T07:12:25;95120.31;;;11.32;100.00
16834;BME280;8533;48.426;10.868;2024-03-23T07:14:50;95165.34;;;11.29;100.00
16834;BME280;8533;48.426;10.868;2024-03-23T07:17:16;95059.91;;;9.91;100.00
16834;BME280;8533;48.426;10.868;2024-03-23T07:19:43;95227.06;;;10.21;100.00
16834;BME280;8533;48.426;10.868;2024-03-23T07:22:08;95173.81;;;9.21;100.00
16834;BME280;8533;48.426;10.868;2024-03-23T07:24:34;95243.25;;;9.32;100.00
16834;BME280;8533;48.426;10.868;2024-03-23T07:26:59;95249.19;;;9.12;100.00
16834;BME280;8533;48.426;10.868;2024-03-23T07:29:24;95259.00;;;8.85;100.00
16834;BME280;8533;48.426;10.868;2024-03-23T07:31:50;95269.66;;;8.73;100.00
16834;BME280;8533;48.426;10.868;2024-03-23T07:34:15;95211.03;;;8.24;100.00
16834;BME280;8533;48.426;10.868;2024-03-23T07:36:41;95298.28;;;8.68;100.00
16834;BME280;8533;48.426;10.868;2024-03-23T07:39:06;95261.41;;;8.39;100.00
16834;BME280;8533;48.426;10.868;2024-03-23T07:41:33;95279.13;;;8.37;100.00
16834;BME280;8533;48.426;10.868;2024-03-23T07:43:58;95288.75;;;8.37;100.00
16834;BME280;8533;48.426;10.868;2024-03-23T07:46:23;95109.91;;;7.21;100.00
16834;BME280;8533;48.426;10.868;2024-03-23T07:48:50;95295.97;;;8.30;100.00
16834;BME280;8533;48.426;10.868;2024-03-23T07:51:23;95299.78;;;8.54;100.00
16834;BME280;8533;48.426;10.868;2024-03-23T07:53:48;95302.16;;;8.56;100.00
16834;BME280;8533;48.426;10.868;2024-03-23T07:56:15;95325.63;;;8.56;100.00
16834;BME280;8533;48.426;10.868;2024-03-23T07:58:40;95315.97;;;8.51;100.00
16834;BME280;8533;48.426;10.868;2024-03-23T08:01:10;95148.69;;;7.28;100.00
16834;BME280;8533;48.426;10.868;2024-03-23T08:03:37;95347.22;;;8.51;100.00
16834;BME280;8533;48.426;10.868;2024-03-23T08:06:13;95348.72;;;8.42;100.00
16834;BME280;8533;48.426;10.868;2024-03-23T08:08:40;95333.91;;;8.16;100.00
16834;BME280;8533;48.426;10.868;2024-03-23T08:11:06;95328.97;;;8.19;100.00
16834;BME280;8533;48.426;10.868;2024-03-23T08:13:32;95337.97;;;8.33;100.00
16834;BME280;8533;48.426;10.868;2024-03-23T08:15:58;95276.97;;;7.92;100.00
16834;BME280;8533;48.426;10.868;2024-03-23T08:18:24;95350.25;;;8.38;100.00
16834;BME280;8533;48.426;10.868;2024-03-23T08:20:59;95378.13;;;8.37;100.00
16834;BME280;8533;48.426;10.868;2024-03-23T08:23:26;95365.63;;;8.34;100.00
16834;BME280;8533;48.426;10.868;2024-03-23T08:25:52;95351.72;;;8.29;100.00
16834;BME280;8533;48.426;10.868;2024-03-23T08:28:22;95342.31;;;8.28;100.00
16834;BME280;8533;48.426;10.868;2024-03-23T08:30:47;95357.84;;;8.45;100.00
16834;BME280;8533;48.426;10.868;2024-03-23T08:33:12;95351.81;;;8.39;100.00
16834;BME280;8533;48.426;10.868;2024-03-23T08:35:38;95373.34;;;8.61;100.00
16834;BME280;8533;48.426;10.868;2024-03-23T08:38:03;95350.81;;;8.45;100.00
16834;BME280;8533;48.426;10.868;2024-03-23T08:40:29;95307.88;;;8.16;100.00
16834;BME280;8533;48.426;10.868;2024-03-23T08:42:54;95220.41;;;7.51;100.00
16834;BME280;8533;48.426;10.868;2024-03-23T08:45:19;95428.66;;;8.68;100.00
16834;BME280;8533;48.426;10.868;2024-03-23T08:47:44;95409.59;;;8.68;100.00
16834;BME280;8533;48.426;10.868;2024-03-23T08:50:10;95361.19;;;8.35;100.00
16834;BME280;8533;48.426;10.868;2024-03-23T08:52:35;95417.88;;;8.55;100.00
16834;BME280;8533;48.426;10.868;2024-03-23T08:55:00;95407.75;;;8.63;100.00
16834;BME280;8533;48.426;10.868;2024-03-23T08:57:26;95368.25;;;8.39;100.00
16834;BME280;8533;48.426;10.868;2024-03-23T08:59:51;95327.03;;;8.04;100.00
16834;BME280;8533;48.426;10.868;2024-03-23T09:02:17;95389.88;;;8.40;100.00
16834;BME280;8533;48.426;10.868;2024-03-23T09:04:42;95416.22;;;8.43;100.00
16834;BME280;8533;48.426;10.868;2024-03-23T09:07:08;95407.56;;;8.38;100.00
16834;BME280;8533;48.426;10.868;2024-03-23T09:09:34;95422.28;;;8.54;100.00
16834;BME280;8533;48.426;10.868;2024-03-23T09:11:59;95408.16;;;8.45;100.00
16834;BME280;8533;48.426;10.868;2024-03-23T09:14:24;95367.44;;;8.34;100.00
16834;BME280;8533;48.426;10.868;2024-03-23T09:16:50;95439.84;;;8.69;100.00
16834;BME280;8533;48.426;10.868;2024-03-23T09:19:17;95433.28;;;8.61;100.00
16834;BME280;8533;48.426;10.868;2024-03-23T09:21:42;95294.94;;;7.62;100.00
16834;BME280;8533;48.426;10.868;2024-03-23T09:24:08;95418.56;;;8.45;100.00
16834;BME280;8533;48.426;10.868;2024-03-23T09:26:33;95411.44;;;8.35;100.00
16834;BME280;8533;48.426;10.868;2024-03-23T09:28:58;95417.53;;;8.46;100.00
16834;BME280;8533;48.426;10.868;2024-03-23T09:31:24;95465.78;;;8.80;100.00
16834;BME280;8533;48.426;10.868;2024-03-23T09:33:49;95271.91;;;7.49;100.00
16834;BME280;8533;48.426;10.868;2024-03-23T09:36:15;95474.31;;;8.76;100.00
16834;BME280;8533;48.426;10.868;2024-03-23T09:38:41;95455.78;;;8.67;100.00
16834;BME280;8533;48.426;10.868;2024-03-23T09:41:09;95445.72;;;8.49;100.00
16834;BME280;8533;48.426;10.868;2024-03-23T09:43:35;95497.53;;;8.77;100.00
16834;BME280;8533;48.426;10.868;2024-03-23T09:46:04;95493.88;;;8.73;100.00
16834;BME280;8533;48.426;10.868;2024-03-23T09:48:30;95336.13;;;7.70;100.00
16834;BME280;8533;48.426;10.868;2024-03-23T09:50:56;95493.13;;;8.78;100.00
16834;BME280;8533;48.426;10.868;2024-03-23T09:53:21;95536.78;;;8.93;100.00
16834;BME280;8533;48.426;10.868;2024-03-23T09:55:47;95504.63;;;8.50;100.00
16834;BME280;8533;48.426;10.868;2024-03-23T09:58:15;95415.59;;;7.78;100.00
16834;BME280;8533;48.426;10.868;2024-03-23T10:00:41;95441.16;;;7.59;100.00
16834;BME280;8533;48.426;10.868;2024-03-23T10:03:06;95527.69;;;8.15;100.00
16834;BME280;8533;48.426;10.868;2024-03-23T10:05:32;95502.28;;;8.00;100.00
16834;BME280;8533;48.426;10.868;2024-03-23T10:10:38;95534.19;;;8.34;100.00
16834;BME280;8533;48.426;10.868;2024-03-23T10:13:04;95556.00;;;8.55;100.00
16834;BME280;8533;48.426;10.868;2024-03-23T10:15:29;95563.19;;;8.69;100.00
16834;BME280;8533;48.426;10.868;2024-03-23T10:17:54;95511.66;;;8.50;100.00
16834;BME280;8533;48.426;10.868;2024-03-23T10:20:21;95566.22;;;8.88;100.00
16834;BME280;8533;48.426;10.868;2024-03-23T10:22:48;95551.50;;;8.77;100.00
16834;BME280;8533;48.426;10.868;2024-03-23T10:25:14;95566.59;;;9.02;100.00
16834;BME280;8533;48.426;10.868;2024-03-23T10:27:39;95556.59;;;8.94;100.00
16834;BME280;8533;48.426;10.868;2024-03-23T10:30:12;95550.34;;;8.63;100.00
16834;BME280;8533;48.426;10.868;2024-03-23T10:32:40;95566.53;;;8.65;100.00
16834;BME280;8533;48.426;10.868;2024-03-23T10:35:18;95547.78;;;8.68;100.00
16834;BME280;8533;48.426;10.868;2024-03-23T10:37:44;95551.16;;;8.68;100.00
16834;BME280;8533;48.426;10.868;2024-03-23T10:40:11;95485.97;;;8.36;100.00
16834;BME280;8533;48.426;10.868;2024-03-23T10:42:38;95557.25;;;8.74;100.00
16834;BME280;8533;48.426;10.868;2024-03-23T10:45:07;95546.91;;;8.57;100.00
16834;BME280;8533;48.426;10.868;2024-03-23T10:47:34;95474.25;;;8.12;100.00
16834;BME280;8533;48.426;10.868;2024-03-23T10:50:00;95583.25;;;8.96;100.00
16834;BME280;8533;48.426;10.868;2024-03-23T10:52:26;95575.38;;;8.91;100.00
16834;BME280;8533;48.426;10.868;2024-03-23T10:54:51;95609.28;;;8.91;100.00
16834;BME280;8533;48.426;10.868;2024-03-23T10:57:18;95456.38;;;7.72;100.00
16834;BME280;8533;48.426;10.868;2024-03-23T10:59:45;95503.88;;;8.06;100.00
16834;BME280;8533;48.426;10.868;2024-03-23T11:02:20;95622.63;;;8.67;95.56
16834;BME280;8533;48.426;10.868;2024-03-23T11:04:46;95638.50;;;8.66;92.92
16834;BME280;8533;48.426;10.868;2024-03-23T11:07:32;95584.03;;;8.43;95.01
16834;BME280;8533;48.426;10.868;2024-03-23T11:09:58;95516.13;;;8.05;92.03
16834;BME280;8533;48.426;10.868;2024-03-23T11:14:50;95624.94;;;9.23;85.52
16834;BME280;8533;48.426;10.868;2024-03-23T11:17:19;95309.09;;;7.44;83.53
16834;BME280;8533;48.426;10.868;2024-03-23T11:19:53;95504.84;;;9.12;84.04
16834;BME280;8533;48.426;10.868;2024-03-23T11:22:43;95618.69;;;10.03;80.60
16834;BME280;8533;48.426;10.868;2024-03-23T11:25:18;95640.56;;;9.86;80.10
16834;BME280;8533;48.426;10.868;2024-03-23T11:27:46;95653.13;;;9.94;80.47
16834;BME280;8533;48.426;10.868;2024-03-23T11:30:16;95642.75;;;10.10;76.05
16834;BME280;8533;48.426;10.868;2024-03-23T11:32:43;95646.59;;;9.92;77.74
16834;BME280;8533;48.426;10.868;2024-03-23T11:35:08;95590.44;;;9.47;77.42
16834;BME280;8533;48.426;10.868;2024-03-23T11:37:35;95610.75;;;9.40;76.61
16834;BME280;8533;48.426;10.868;2024-03-23T11:40:16;95618.72;;;9.29;75.64
16834;BME280;8533;48.426;10.868;2024-03-23T11:42:41;95632.38;;;9.41;76.79
16834;BME280;8533;48.426;10.868;2024-03-23T11:45:08;95663.88;;;9.61;78.84
16834;BME280;8533;48.426;10.868;2024-03-23T11:47:34;95618.78;;;9.71;76.14
16834;BME280;8533;48.426;10.868;2024-03-23T11:49:59;95573.22;;;9.51;75.13
16834;BME280;8533;48.426;10.868;2024-03-23T11:52:24;95400.19;;;8.62;73.33
16834;BME280;8533;48.426;10.868;2024-03-23T11:54:49;95589.16;;;9.97;73.46
16834;BME280;8533;48.426;10.868;2024-03-23T11:57:15;95504.97;;;9.33;74.86
16834;BME280;8533;48.426;10.868;2024-03-23T11:59:41;95601.13;;;9.93;74.70
16834;BME280;8533;48.426;10.868;2024-03-23T12:02:13;95550.81;;;9.61;73.98
16834;BME280;8533;48.426;10.868;2024-03-23T12:04:42;95618.94;;;9.96;74.64
16834;BME280;8533;48.426;10.868;2024-03-23T12:09:36;95627.44;;;11.46;70.68
16834;BME280;8533;48.426;10.868;2024-03-23T12:12:14;95632.38;;;10.97;71.85
16834;BME280;8533;48.426;10.868;2024-03-23T12:14:43;95632.59;;;10.76;70.60
16834;BME280;8533;48.426;10.868;2024-03-23T12:17:15;95610.75;;;10.35;70.69
16834;BME280;8533;48.426;10.868;2024-03-23T12:19:41;95594.28;;;10.34;69.82
16834;BME280;8533;48.426;10.868;2024-03-23T12:22:07;95566.81;;;10.31;70.27
16834;BME280;8533;48.426;10.868;2024-03-23T12:24:34;95527.06;;;10.24;65.92
16834;BME280;8533;48.426;10.868;2024-03-23T12:27:03;95570.63;;;11.06;65.00
16834;BME280;8533;48.426;10.868;2024-03-23T12:29:32;95494.44;;;11.33;62.28
16834;BME280;8533;48.426;10.868;2024-03-23T12:32:01;95587.50;;;12.10;60.40
16834;BME280;8533;48.426;10.868;2024-03-23T12:34:28;95568.47;;;11.69;61.03
16834;BME280;8533;48.426;10.868;2024-03-23T12:36:53;95579.25;;;11.37;61.92
16834;BME280;8533;48.426;10.868;2024-03-23T12:39:19;95561.22;;;11.11;63.39
16834;BME280;8533;48.426;10.868;2024-03-23T12:41:48;95545.47;;;10.95;63.45
16834;BME280;8533;48.426;10.868;2024-03-23T12:44:14;95574.53;;;10.89;63.71
16834;BME280;8533;48.426;10.868;2024-03-23T12:46:41;95572.09;;;10.42;64.23
16834;BME280;8533;48.426;10.868;2024-03-23T12:49:06;95569.00;;;9.98;64.94
16834;BME280;8533;48.426;10.868;2024-03-23T12:51:32;95559.81;;;9.85;65.41
16834;BME280;8533;48.426;10.868;2024-03-23T12:53:58;95524.78;;;9.29;69.77
16834;BME280;8533;48.426;10.868;2024-03-23T12:56:23;95533.47;;;9.02;71.26
16834;BME280;8533;48.426;10.868;2024-03-23T12:58:48;95577.81;;;9.02;73.33
16834;BME280;8533;48.426;10.868;2024-03-23T13:01:16;95591.59;;;8.98;77.31
16834;BME280;8533;48.426;10.868;2024-03-23T13:03:42;95609.47;;;8.84;77.31
16834;BME280;8533;48.426;10.868;2024-03-23T13:06:09;95635.69;;;8.29;86.01
16834;BME280;8533;48.426;10.868;2024-03-23T13:08:35;95576.72;;;7.57;95.90
16834;BME280;8533;48.426;10.868;2024-03-23T13:11:00;95628.53;;;7.25;99.82
16834;BME280;8533;48.426;10.868;2024-03-23T13:13:25;95553.19;;;6.80;100.00
16834;BME280;8533;48.426;10.868;2024-03-23T13:15:51;95663.78;;;7.33;100.00
16834;BME280;8533;48.426;10.868;2024-03-23T13:18:16;95636.09;;;7.10;100.00
16834;BME280;8533;48.426;10.868;2024-03-23T13:20:42;95623.94;;;6.99;100.00
16834;BME280;8533;48.426;10.868;2024-03-23T13:23:07;95617.53;;;6.90;100.00
16834;BME280;8533;48.426;10.868;2024-03-23T13:25:32;95630.00;;;6.88;100.00
16834;BME280;8533;48.426;10.868;2024-03-23T13:27:58;95618.97;;;6.81;96.09
16834;BME280;8533;48.426;10.868;2024-03-23T13:30:23;95621.56;;;6.81;93.25
16834;BME280;8533;48.426;10.868;2024-03-23T13:32:49;95665.00;;;6.97;89.85
16834;BME280;8533;48.426;10.868;2024-03-23T13:35:15;95538.53;;;6.29;89.89
16834;BME280;8533;48.426;10.868;2024-03-23T13:37:40;95416.25;;;5.57;91.33
16834;BME280;8533;48.426;10.868;2024-03-23T13:40:07;95606.25;;;6.68;94.50
16834;BME280;8533;48.426;10.868;2024-03-23T13:42:32;95611.47;;;6.84;94.05
16834;BME280;8533;48.426;10.868;2024-03-23T13:44:57;95419.53;;;5.53;91.51
16834;BME280;8533;48.426;10.868;2024-03-23T13:47:23;95606.69;;;6.93;90.13
16834;BME280;8533;48.426;10.868;2024-03-23T13:49:48;95605.91;;;7.09;88.95
16834;BME280;8533;48.426;10.868;2024-03-23T13:52:14;95524.66;;;6.69;86.48
16834;BME280;8533;48.426;10.868;2024-03-23T13:54:39;95417.00;;;5.98;86.57
16834;BME280;8533;48.426;10.868;2024-03-23T13:57:10;95619.09;;;7.19;87.85
16834;BME280;8533;48.426;10.868;2024-03-23T13:59:35;95420.78;;;5.90;89.07